createdAt,value
2024-01-21T00:00:15.362Z,9.20
2024-01-21T00:02:43.792Z,10.90
2024-01-21T00:05:13.155Z,12.53
2024-01-21T00:07:42.065Z,13.23
2024-01-21T00:10:11.629Z,12.67
2024-01-21T00:12:40.449Z,8.47
2024-01-21T00:15:12.299Z,8.70
2024-01-21T00:17:41.621Z,7.73
2024-01-21T00:20:11.031Z,13.20
2024-01-21T00:22:41.675Z,12.67
2024-01-21T00:25:11.577Z,8.73
2024-01-21T00:27:40.530Z,11.07
2024-01-21T00:30:12.884Z,9.63
2024-01-21T00:32:41.341Z,8.73
2024-01-21T00:35:10.888Z,10.33
2024-01-21T00:37:39.710Z,6.73
2024-01-21T00:40:09.981Z,6.90
2024-01-21T00:42:38.952Z,6.43
2024-01-21T00:45:08.928Z,9.47
2024-01-21T00:47:39.336Z,7.63
2024-01-21T00:50:08.429Z,3.50
2024-01-21T00:52:37.128Z,4.23
2024-01-21T00:55:06.435Z,3.47
2024-01-21T00:57:35.091Z,3.60
2024-01-21T01:00:03.852Z,3.43
2024-01-21T01:02:32.390Z,3.93
2024-01-21T01:05:02.438Z,4.10
2024-01-21T01:07:31.242Z,2.30
2024-01-21T01:10:00.582Z,1.63
2024-01-21T01:12:29.790Z,1.90
2024-01-21T01:14:58.685Z,1.33
2024-01-21T01:17:27.335Z,1.10
2024-01-21T01:19:56.018Z,4.03
2024-01-21T01:22:26.321Z,3.50
2024-01-21T01:24:55.005Z,1.90
2024-01-21T01:27:34.749Z,1.90
2024-01-21T01:30:03.202Z,1.40
2024-01-21T01:32:31.711Z,1.73
2024-01-21T01:38:26.269Z,1.33
2024-01-21T01:40:54.807Z,1.40
2024-01-21T01:43:25.121Z,2.00
2024-01-21T01:45:54.152Z,3.80
2024-01-21T01:48:23.622Z,3.97
2024-01-21T01:50:52.526Z,3.07
2024-01-21T01:53:21.636Z,1.13
2024-01-21T01:55:50.178Z,1.50
2024-01-21T01:58:18.926Z,2.33
2024-01-21T02:00:49.913Z,1.10
2024-01-21T02:03:18.973Z,1.30
2024-01-21T02:05:48.168Z,2.63
2024-01-21T02:08:17.447Z,1.50
2024-01-21T02:10:46.790Z,4.73
2024-01-21T02:13:16.751Z,3.50
2024-01-21T02:15:45.750Z,3.17
2024-01-21T02:18:15.998Z,1.10
2024-01-21T02:20:44.648Z,1.63
2024-01-21T02:23:15.185Z,2.77
2024-01-21T02:25:43.975Z,1.47
2024-01-21T02:28:12.729Z,0.83
2024-01-21T02:30:43.481Z,1.63
2024-01-21T02:33:12.139Z,0.90
2024-01-21T02:35:40.723Z,1.07
2024-01-21T02:38:09.355Z,1.40
2024-01-21T02:40:40.175Z,0.90
2024-01-21T02:43:09.365Z,1.13
2024-01-21T02:45:38.192Z,0.70
2024-01-21T02:48:08.065Z,1.33
2024-01-21T02:50:37.100Z,1.43
2024-01-21T02:53:06.342Z,2.20
2024-01-21T02:55:35.642Z,0.93
2024-01-21T02:58:06.100Z,0.70
2024-01-21T03:00:34.422Z,1.27
2024-01-21T03:03:03.322Z,1.00
2024-01-21T03:05:32.150Z,0.80
2024-01-21T03:08:01.008Z,1.30
2024-01-21T03:10:29.808Z,1.00
2024-01-21T03:12:58.112Z,1.00
2024-01-21T03:15:28.101Z,0.70
2024-01-21T03:17:56.789Z,1.60
2024-01-21T03:20:25.825Z,0.73
2024-01-21T03:22:54.419Z,1.50
2024-01-21T03:25:23.065Z,2.13
2024-01-21T03:27:51.520Z,1.17
2024-01-21T03:30:46.611Z,1.63
2024-01-21T03:33:15.516Z,1.37
2024-01-21T03:35:44.209Z,1.37
2024-01-21T03:38:12.968Z,1.30
2024-01-21T03:40:41.517Z,0.67
2024-01-21T03:43:10.077Z,1.17
2024-01-21T03:45:38.381Z,0.60
2024-01-21T03:48:10.533Z,1.13
2024-01-21T03:50:39.888Z,0.87
2024-01-21T03:53:08.683Z,0.70
2024-01-21T03:55:42.787Z,1.23
2024-01-21T03:58:11.772Z,0.70
2024-01-21T04:00:40.504Z,0.90
2024-01-21T04:03:10.656Z,1.10
2024-01-21T04:05:39.233Z,1.00
2024-01-21T04:08:08.600Z,0.87
2024-01-21T04:10:36.915Z,1.07
2024-01-21T04:13:05.286Z,0.60
2024-01-21T04:15:33.983Z,1.27
2024-01-21T04:18:03.317Z,1.30
2024-01-21T04:20:34.067Z,0.97
2024-01-21T04:23:02.868Z,0.70
2024-01-21T04:25:31.696Z,2.57
2024-01-21T04:28:00.529Z,3.17
2024-01-21T04:30:29.526Z,3.80
2024-01-21T04:32:58.764Z,1.07
2024-01-21T04:35:27.794Z,0.80
2024-01-21T04:37:58.096Z,0.93
2024-01-21T04:40:27.087Z,0.97
2024-01-21T04:42:55.812Z,1.20
2024-01-21T04:45:24.612Z,1.53
2024-01-21T04:47:53.514Z,3.63
2024-01-21T04:50:22.028Z,2.27
2024-01-21T04:52:50.558Z,2.30
2024-01-21T04:55:21.459Z,1.33
2024-01-21T04:57:50.050Z,1.37
2024-01-21T05:00:20.579Z,0.90
2024-01-21T05:02:48.880Z,1.20
2024-01-21T05:05:17.402Z,1.33
2024-01-21T05:07:46.013Z,0.97
2024-01-21T05:10:16.063Z,0.93
2024-01-21T05:12:46.159Z,0.80
2024-01-21T05:15:15.102Z,2.47
2024-01-21T05:17:43.806Z,3.50
2024-01-21T05:20:13.026Z,1.30
2024-01-21T05:22:41.672Z,1.97
2024-01-21T05:25:10.204Z,1.13
2024-01-21T05:27:38.646Z,1.20
2024-01-21T05:30:09.658Z,1.17
2024-01-21T05:32:38.256Z,0.93
2024-01-21T05:35:08.707Z,0.93
2024-01-21T05:37:37.445Z,1.10
2024-01-21T05:40:06.915Z,1.00
2024-01-21T05:42:35.303Z,0.70
2024-01-21T05:45:03.968Z,1.10
2024-01-21T05:47:33.936Z,1.17
2024-01-21T05:50:02.278Z,4.63
2024-01-21T05:52:34.525Z,1.37
2024-01-21T05:55:03.850Z,1.33
2024-01-21T05:57:35.398Z,0.70
2024-01-21T06:00:04.630Z,1.53
2024-01-21T06:02:35.957Z,1.40
2024-01-21T06:05:04.888Z,1.10
2024-01-21T06:07:33.090Z,1.80
2024-01-21T06:10:01.850Z,0.80
2024-01-21T06:12:30.202Z,1.40
2024-01-21T06:14:58.918Z,1.33
2024-01-21T06:17:27.456Z,1.60
2024-01-21T06:19:57.624Z,1.13
2024-01-21T06:22:26.326Z,2.13
2024-01-21T06:24:55.168Z,2.10
2024-01-21T06:27:24.280Z,1.80
2024-01-21T06:29:53.306Z,0.80
2024-01-21T06:32:22.177Z,0.97
2024-01-21T06:34:51.418Z,1.00
2024-01-21T06:37:21.528Z,1.03
2024-01-21T06:39:57.376Z,1.30
2024-01-21T06:42:31.556Z,0.70
2024-01-21T06:45:01.140Z,0.83
2024-01-21T06:47:30.505Z,0.77
2024-01-21T06:49:59.013Z,0.90
2024-01-21T06:52:28.822Z,0.90
2024-01-21T06:54:57.461Z,1.10
2024-01-21T06:57:26.042Z,1.33
2024-01-21T06:59:54.508Z,2.40
2024-01-21T07:02:22.799Z,1.53
2024-01-21T07:04:51.278Z,0.70
2024-01-21T07:07:19.453Z,1.33
2024-01-21T07:09:51.940Z,0.70
2024-01-21T07:12:20.572Z,0.70
2024-01-21T07:14:49.906Z,2.73
2024-01-21T07:17:19.038Z,1.63
2024-01-21T07:19:48.656Z,1.43
2024-01-21T07:22:18.330Z,0.67
2024-01-21T07:24:47.738Z,1.67
2024-01-21T07:27:17.652Z,3.23
2024-01-21T07:29:46.627Z,3.50
2024-01-21T07:32:15.152Z,4.40
2024-01-21T07:34:45.036Z,6.53
2024-01-21T07:37:14.663Z,5.70
2024-01-21T07:39:44.179Z,10.97
2024-01-21T07:42:13.302Z,12.00
2024-01-21T07:44:43.705Z,10.70
2024-01-21T07:47:12.661Z,3.67
2024-01-21T07:49:42.293Z,4.63
2024-01-21T07:52:11.520Z,6.90
2024-01-21T07:54:40.152Z,4.60
2024-01-21T07:57:08.541Z,4.93
2024-01-21T07:59:37.036Z,5.90
2024-01-21T08:02:07.370Z,5.83
2024-01-21T08:04:36.444Z,3.60
2024-01-21T08:07:05.562Z,3.07
2024-01-21T08:09:34.735Z,3.40
2024-01-21T08:12:03.730Z,2.47
2024-01-21T08:14:33.502Z,5.63
2024-01-21T08:17:02.086Z,10.40
2024-01-21T08:19:38.384Z,13.83
2024-01-21T08:22:07.945Z,17.90
2024-01-21T08:24:39.544Z,19.33
2024-01-21T08:27:09.111Z,13.60
2024-01-21T08:29:40.749Z,12.23
2024-01-21T08:32:09.848Z,13.60
2024-01-21T08:34:41.401Z,12.50
2024-01-21T08:37:10.112Z,12.90
2024-01-21T08:39:41.306Z,8.67
2024-01-21T08:42:11.436Z,8.27
2024-01-21T08:44:41.642Z,8.67
2024-01-21T08:47:10.776Z,12.27
2024-01-21T08:49:40.729Z,7.80
2024-01-21T08:52:10.328Z,6.93
2024-01-21T08:54:40.237Z,10.50
2024-01-21T08:57:09.255Z,5.60
2024-01-21T08:59:37.674Z,9.70
2024-01-21T09:02:07.845Z,7.07
2024-01-21T09:04:36.863Z,5.03
2024-01-21T09:07:07.169Z,3.83
2024-01-21T09:09:36.740Z,5.13
2024-01-21T09:12:08.318Z,22.27
2024-01-21T09:14:38.700Z,30.53
2024-01-21T09:17:07.317Z,34.60
2024-01-21T09:19:36.158Z,18.90
2024-01-21T09:22:06.679Z,26.37
2024-01-21T09:24:37.687Z,15.40
2024-01-21T09:27:07.493Z,15.40
2024-01-21T09:29:35.847Z,14.23
2024-01-21T09:32:05.018Z,7.93
2024-01-21T09:34:34.615Z,12.93
2024-01-21T09:37:03.331Z,30.90
2024-01-21T09:39:34.104Z,22.87
2024-01-21T09:42:02.675Z,17.50
2024-01-21T09:44:31.905Z,17.80
2024-01-21T09:47:01.383Z,12.50
2024-01-21T09:49:32.869Z,10.53
2024-01-21T09:52:02.075Z,11.87
2024-01-21T09:54:31.948Z,13.20
2024-01-21T09:57:03.070Z,12.97
2024-01-21T09:59:32.622Z,8.67
2024-01-21T10:02:02.148Z,8.33
2024-01-21T10:04:31.522Z,9.10
2024-01-21T10:07:03.181Z,7.87
2024-01-21T10:09:33.664Z,7.87
2024-01-21T10:12:05.646Z,5.63
2024-01-21T10:14:37.276Z,4.10
2024-01-21T10:17:06.386Z,5.47
2024-01-21T10:19:36.055Z,6.63
2024-01-21T10:22:12.004Z,4.97
2024-01-21T10:24:41.150Z,3.30
2024-01-21T10:27:11.684Z,7.30
2024-01-21T10:29:45.135Z,3.80
2024-01-21T10:32:16.406Z,2.47
2024-01-21T10:34:46.984Z,9.83
2024-01-21T10:37:17.059Z,8.43
2024-01-21T10:39:48.149Z,4.43
2024-01-21T10:42:19.240Z,6.20
2024-01-21T10:44:48.740Z,4.50
2024-01-21T10:47:18.702Z,4.40
2024-01-21T10:49:47.561Z,5.40
2024-01-21T10:52:17.936Z,5.60
2024-01-21T10:54:49.399Z,8.30
2024-01-21T10:57:20.671Z,8.13
2024-01-21T10:59:52.004Z,6.37
2024-01-21T11:02:21.914Z,11.00
2024-01-21T11:04:50.849Z,12.77
2024-01-21T11:07:21.088Z,6.80
2024-01-21T11:09:53.067Z,3.77
2024-01-21T11:12:24.867Z,5.40
2024-01-21T11:14:56.782Z,2.53
2024-01-21T11:17:25.431Z,5.23
2024-01-21T11:19:56.372Z,3.60
2024-01-21T11:22:27.599Z,2.33
2024-01-21T11:24:58.598Z,6.60
2024-01-21T11:27:33.578Z,7.93
2024-01-21T11:30:07.006Z,10.20
2024-01-21T11:32:36.257Z,8.87
2024-01-21T11:35:09.941Z,12.37
2024-01-21T11:37:39.867Z,6.87
2024-01-21T11:40:11.688Z,11.23
2024-01-21T11:42:42.591Z,4.30
2024-01-21T11:45:12.111Z,5.83
2024-01-21T11:47:42.238Z,2.70
2024-01-21T11:50:11.920Z,7.77
2024-01-21T11:52:40.816Z,2.50
2024-01-21T11:55:10.155Z,3.77
2024-01-21T11:57:42.585Z,2.93
2024-01-21T12:00:12.378Z,5.80
2024-01-21T12:02:41.149Z,5.97
2024-01-21T12:05:10.630Z,7.10
2024-01-21T12:07:40.438Z,7.23
2024-01-21T12:10:10.905Z,2.40
2024-01-21T12:12:40.381Z,4.80
2024-01-21T12:15:11.079Z,3.57
2024-01-21T12:17:39.581Z,3.77
2024-01-21T12:20:10.133Z,3.03
2024-01-21T12:22:39.603Z,9.33
2024-01-21T12:25:11.594Z,5.83
2024-01-21T12:27:43.688Z,5.63
2024-01-21T12:30:17.218Z,8.70
2024-01-21T12:32:53.459Z,8.23
2024-01-21T12:35:29.486Z,3.60
2024-01-21T12:37:58.654Z,3.60
2024-01-21T12:40:27.468Z,4.20
2024-01-21T12:42:56.258Z,7.13
2024-01-21T12:45:27.216Z,6.13
2024-01-21T12:47:59.274Z,4.30
2024-01-21T12:50:28.301Z,7.03
2024-01-21T12:52:57.644Z,6.07
2024-01-21T12:55:28.702Z,8.23
2024-01-21T12:58:01.028Z,7.73
2024-01-21T13:00:31.060Z,4.90
2024-01-21T13:02:59.502Z,4.93
2024-01-21T13:05:28.586Z,5.73
2024-01-21T13:07:59.812Z,5.80
2024-01-21T13:10:31.235Z,5.83
2024-01-21T13:13:00.234Z,11.17
2024-01-21T13:15:30.365Z,8.63
2024-01-21T13:18:05.707Z,7.07
2024-01-21T13:20:35.289Z,8.20
2024-01-21T13:23:04.186Z,6.47
2024-01-21T13:25:34.814Z,8.73
2024-01-21T13:28:15.729Z,6.70
2024-01-21T13:30:48.038Z,5.93
2024-01-21T13:33:18.615Z,9.80
2024-01-21T13:35:49.294Z,5.27
2024-01-21T13:38:22.642Z,6.73
2024-01-21T13:40:51.885Z,8.53
2024-01-21T13:43:20.885Z,10.50
2024-01-21T13:45:53.526Z,7.80
2024-01-21T13:48:23.194Z,7.17
2024-01-21T13:50:52.384Z,5.43
2024-01-21T13:53:24.101Z,7.03
2024-01-21T13:55:52.668Z,7.50
2024-01-21T13:58:23.917Z,7.03
2024-01-21T14:00:56.978Z,26.20
2024-01-21T14:03:26.246Z,10.87
2024-01-21T14:05:56.596Z,9.30
2024-01-21T14:08:28.220Z,9.17
2024-01-21T14:10:57.460Z,7.47
2024-01-21T14:13:28.922Z,5.17
2024-01-21T14:16:01.181Z,7.27
2024-01-21T14:18:30.442Z,7.23
2024-01-21T14:21:02.507Z,6.70
2024-01-21T14:23:33.735Z,6.10
2024-01-21T14:26:08.900Z,13.00
2024-01-21T14:28:42.463Z,6.60
2024-01-21T14:31:12.663Z,19.87
2024-01-21T14:33:41.690Z,10.07
2024-01-21T14:36:13.429Z,8.17
2024-01-21T14:38:42.317Z,5.90
2024-01-21T14:41:11.125Z,6.00
2024-01-21T14:43:39.774Z,13.90
2024-01-21T14:46:08.621Z,7.93
2024-01-21T14:48:39.584Z,11.43
2024-01-21T14:51:08.669Z,9.07
2024-01-21T14:53:37.793Z,7.30
2024-01-21T14:56:07.791Z,11.17
2024-01-21T14:58:37.814Z,9.03
2024-01-21T15:01:06.913Z,6.80
2024-01-21T15:03:41.270Z,5.67
2024-01-21T15:06:11.881Z,8.00
2024-01-21T15:08:41.453Z,8.33
2024-01-21T15:11:12.564Z,13.10
2024-01-21T15:13:47.266Z,10.03
2024-01-21T15:16:16.705Z,8.33
2024-01-21T15:18:47.406Z,14.30
2024-01-21T15:21:16.491Z,8.13
2024-01-21T15:23:45.635Z,11.77
2024-01-21T15:26:14.707Z,23.90
2024-01-21T15:28:44.385Z,22.73
2024-01-21T15:31:15.848Z,25.73
2024-01-21T15:33:45.309Z,8.27
2024-01-21T15:36:16.519Z,17.27
2024-01-21T15:38:45.716Z,12.63
2024-01-21T15:41:15.021Z,9.13
2024-01-21T15:43:45.204Z,11.77
2024-01-21T15:46:14.153Z,12.57
2024-01-21T15:48:45.491Z,9.20
2024-01-21T15:51:19.093Z,12.63
2024-01-21T15:53:49.489Z,9.23
2024-01-21T15:56:19.660Z,12.13
2024-01-21T15:58:48.247Z,10.87
2024-01-21T16:01:17.033Z,11.00
2024-01-21T16:03:47.043Z,9.50
2024-01-21T16:06:15.749Z,8.37
2024-01-21T16:08:45.782Z,14.40
2024-01-21T16:11:15.399Z,10.27
2024-01-21T16:13:44.476Z,15.50
2024-01-21T16:16:15.885Z,7.00
2024-01-21T16:18:44.779Z,15.83
2024-01-21T16:21:14.479Z,13.83
2024-01-21T16:23:43.772Z,11.60
2024-01-21T16:26:17.218Z,8.93
2024-01-21T16:28:46.662Z,11.63
2024-01-21T16:31:15.544Z,6.40
2024-01-21T16:33:44.609Z,6.27
2024-01-21T16:36:14.232Z,9.53
2024-01-21T16:38:43.053Z,8.20
2024-01-21T16:41:11.819Z,6.17
2024-01-21T16:43:44.330Z,11.90
2024-01-21T16:46:13.014Z,9.40
2024-01-21T16:48:49.416Z,9.77
2024-01-21T16:51:18.805Z,8.23
2024-01-21T16:53:51.677Z,7.27
2024-01-21T16:56:20.644Z,7.67
2024-01-21T16:58:51.819Z,6.70
2024-01-21T17:01:20.971Z,7.40
2024-01-21T17:03:52.637Z,5.20
2024-01-21T17:06:21.459Z,11.13
2024-01-21T17:08:54.688Z,9.93
2024-01-21T17:11:27.461Z,12.13
2024-01-21T17:14:00.240Z,17.57
2024-01-21T17:16:31.008Z,11.23
2024-01-21T17:19:06.703Z,11.00
2024-01-21T17:21:36.084Z,15.43
2024-01-21T17:24:05.136Z,13.43
2024-01-21T17:26:33.647Z,14.43
2024-01-21T17:29:06.960Z,18.10
2024-01-21T17:31:38.744Z,16.87
2024-01-21T17:34:07.876Z,18.70
2024-01-21T17:36:39.265Z,15.13
2024-01-21T17:39:08.070Z,16.57
2024-01-21T17:41:37.137Z,11.17
2024-01-21T17:44:09.830Z,8.10
2024-01-21T17:46:38.234Z,14.30
2024-01-21T17:49:07.480Z,12.30
2024-01-21T17:51:39.229Z,15.60
2024-01-21T17:54:08.128Z,6.10
2024-01-21T17:56:56.926Z,11.90
2024-01-21T17:59:27.440Z,14.30
2024-01-21T18:01:55.998Z,16.40
2024-01-21T18:04:24.826Z,19.97
2024-01-21T18:06:53.261Z,18.57
2024-01-21T18:09:27.489Z,11.93
2024-01-21T18:11:57.901Z,17.13
2024-01-21T18:14:28.460Z,10.37
2024-01-21T18:16:57.650Z,15.73
2024-01-21T18:19:29.003Z,14.10
2024-01-21T18:22:01.454Z,20.47
2024-01-21T18:24:30.564Z,12.23
2024-01-21T18:26:59.319Z,19.27
2024-01-21T18:29:36.010Z,15.37
2024-01-21T18:32:11.025Z,14.70
2024-01-21T18:34:45.262Z,20.90
2024-01-21T18:37:14.035Z,16.47
2024-01-21T18:39:45.775Z,8.30
2024-01-21T18:42:20.608Z,9.60
2024-01-21T18:44:51.047Z,13.37
2024-01-21T18:47:19.537Z,10.53
2024-01-21T18:49:48.252Z,7.97
2024-01-21T18:52:18.451Z,6.57
2024-01-21T18:54:58.286Z,7.67
2024-01-21T18:57:29.909Z,5.50
2024-01-21T19:00:20.982Z,14.37
2024-01-21T19:02:49.784Z,16.10
2024-01-21T19:05:27.655Z,25.60
2024-01-21T19:07:59.422Z,23.00
2024-01-21T19:10:28.290Z,13.63
2024-01-21T19:12:56.946Z,12.70
2024-01-21T19:15:33.240Z,17.37
2024-01-21T19:18:02.461Z,11.30
2024-01-21T19:20:34.374Z,11.43
2024-01-21T19:23:06.618Z,17.70
2024-01-21T19:25:35.638Z,12.33
2024-01-21T19:28:06.335Z,5.67
2024-01-21T19:30:39.261Z,7.50
2024-01-21T19:33:11.790Z,6.63
2024-01-21T19:36:05.810Z,7.33
2024-01-21T19:38:35.589Z,6.23
2024-01-21T19:41:07.226Z,5.83
2024-01-21T19:43:36.248Z,8.30
2024-01-21T19:46:09.772Z,4.10
2024-01-21T19:48:41.537Z,3.20
2024-01-21T19:51:31.653Z,3.40
2024-01-21T19:54:03.250Z,3.90
2024-01-21T19:56:35.603Z,17.50
2024-01-21T19:59:04.641Z,21.70
2024-01-21T20:01:41.037Z,32.20
2024-01-21T20:04:16.857Z,22.23
2024-01-21T20:06:54.769Z,23.50
2024-01-21T20:09:34.008Z,13.77
2024-01-21T20:12:02.865Z,9.20
2024-01-21T20:14:41.216Z,11.53
2024-01-21T20:17:27.589Z,9.37
2024-01-21T20:19:59.259Z,10.40
2024-01-21T20:22:54.584Z,5.40
2024-01-21T20:25:23.023Z,6.53
2024-01-21T20:27:59.432Z,6.10
2024-01-21T20:30:30.402Z,7.80
2024-01-21T20:33:00.733Z,6.57
2024-01-21T20:35:35.708Z,5.33
2024-01-21T20:38:10.609Z,7.50
2024-01-21T20:40:41.953Z,7.27
2024-01-21T20:43:13.054Z,4.30
2024-01-21T20:45:45.665Z,5.77
2024-01-21T20:48:18.795Z,4.10
2024-01-21T20:50:50.507Z,4.30
2024-01-21T20:53:19.710Z,4.97
2024-01-21T20:55:48.550Z,5.17
2024-01-21T20:58:20.154Z,7.23
2024-01-21T21:00:56.805Z,5.73
2024-01-21T21:03:33.186Z,7.40
2024-01-21T21:06:02.188Z,9.53
2024-01-21T21:08:31.469Z,9.77
2024-01-21T21:11:02.272Z,12.33
2024-01-21T21:13:30.957Z,7.10
2024-01-21T21:15:59.477Z,9.67
2024-01-21T21:18:30.602Z,5.77
2024-01-21T21:21:01.099Z,6.97
2024-01-21T21:23:44.725Z,4.63
2024-01-21T21:26:13.543Z,6.13
2024-01-21T21:28:42.280Z,10.03
2024-01-21T21:31:11.777Z,5.33
2024-01-21T21:33:40.684Z,14.10
2024-01-21T21:36:11.242Z,7.47
2024-01-21T21:38:40.233Z,6.13
2024-01-21T21:41:10.155Z,3.77
2024-01-21T21:43:39.832Z,3.03
2024-01-21T21:46:08.706Z,4.40
2024-01-21T21:48:38.431Z,3.17
2024-01-21T21:51:07.530Z,8.23
2024-01-21T21:53:40.006Z,8.63
2024-01-21T21:56:08.972Z,10.23
2024-01-21T21:58:38.211Z,10.37
2024-01-21T22:01:07.062Z,8.77
2024-01-21T22:03:38.038Z,7.47
2024-01-21T22:06:09.335Z,5.80
2024-01-21T22:08:40.077Z,5.77
2024-01-21T22:11:09.902Z,4.37
2024-01-21T22:13:39.520Z,8.80
2024-01-21T22:16:08.990Z,5.33
2024-01-21T22:18:41.417Z,3.97
2024-01-21T22:21:18.031Z,11.03
2024-01-21T22:23:49.210Z,3.90
2024-01-21T22:26:18.126Z,4.53
2024-01-21T22:28:47.371Z,5.20
2024-01-21T22:31:16.103Z,4.63
2024-01-21T22:33:48.790Z,4.70
2024-01-21T22:36:17.821Z,5.83
2024-01-21T22:38:48.496Z,5.93
2024-01-21T22:41:16.987Z,14.10
2024-01-21T22:43:48.277Z,7.10
2024-01-21T22:46:17.077Z,6.87
2024-01-21T22:48:46.165Z,3.53
2024-01-21T22:51:17.104Z,6.90
2024-01-21T22:53:46.255Z,2.77
2024-01-21T22:56:16.138Z,3.73
2024-01-21T22:58:46.745Z,3.50
2024-01-21T23:01:15.745Z,5.00
2024-01-21T23:03:45.452Z,4.50
2024-01-21T23:06:17.047Z,2.30
2024-01-21T23:08:45.473Z,4.13
2024-01-21T23:11:16.165Z,4.57
2024-01-21T23:13:45.062Z,4.03
2024-01-21T23:16:13.666Z,3.10
2024-01-21T23:18:42.438Z,2.20
2024-01-21T23:21:11.355Z,1.93
2024-01-21T23:23:40.059Z,1.67
2024-01-21T23:26:08.876Z,1.90
2024-01-21T23:28:38.864Z,4.00
2024-01-21T23:31:07.748Z,1.57
2024-01-21T23:33:36.892Z,3.93
2024-01-21T23:36:06.199Z,3.93
2024-01-21T23:38:35.804Z,4.17
2024-01-21T23:41:04.479Z,4.70
2024-01-21T23:43:33.483Z,2.60
2024-01-21T23:46:04.689Z,6.57
2024-01-21T23:48:35.076Z,5.90
2024-01-21T23:51:03.859Z,3.87
2024-01-21T23:53:32.930Z,9.63
2024-01-21T23:56:01.742Z,2.40
2024-01-21T23:58:30.722Z,5.40
